Onahama, Japan

4:19 PM JST on September 23, 2014 (GMT +0900)
Fukushima | Change Station
CLOSE
Current Station
Airport
Location: Fukushima,
Elevation: 1220 ft
Nearby Weather Stations

Elev 1220 ft 37.23 °N, 140.43 °E | Updated 19 minutes ago

Partly Cloudy
Partly Cloudy
72 °F
Feels Like 72 °F
N
5
Wind Variable Wind from SE

Today
High -- | Low -- °F
--% Chance of Precip.
Yesterday
High -- | Low -- °F
Precip. -- in
5:24 AM 5:32 PM
Waning Crescent, 1% visible
Pressure 30.12 in
Visibility 6.2 miles
Clouds Few 4500 ft
Dew Point 48 °F
Humidity 43%
Rainfall 0.00 in
Snow Depth Not available.
UV 1 out of 12
Pollen Not available.
Air Quality Not available.
Flu Activity Not available.
METAR RJSF 230700Z 14004KT 090V180 9999 FEW045 BKN/// 22/09 Q1020

More Conditions Fewer Conditions

Pressure 30.12 in
Visibility 6.2 miles
Clouds Few 4500 ft
Dew Point 48 °F
Humidity 43%
Rainfall 0.00 in
Snow Depth Not available.
UV 1 out of 12
Pollen Not available.
Air Quality Not available.
Flu Activity Not available.
METAR RJSF 230700Z 14004KT 090V180 9999 FEW045 BKN/// 22/09 Q1020

More Conditions Fewer Conditions

10-Day Weather Forecast

Almanac

Astronomy

Sep. 23, 2014 Rise Set
Actual Time 5:24 AM JST 5:32 PM JST
Civil Twilight 4:58 AM JST 5:58 PM JST
Nautical Twilight 4:28 AM JST 6:28 PM JST
Astronomical Twilight 3:57 AM JST 6:59 PM JST
Moon 4:14 AM JST 4:51 PM JST
Length of Visible Light 12h 59m
Length of Day
12h 08m
Tomorrow will be 2m 20s shorter.
Waning Crescent, 1% of the Moon is Illuminated
Today
Waning Crescent
Sep 24
New
Oct 1
First Quarter
Oct 8
Full
Oct 15
Last Quarter

Yesterday's Extremes

Country Highs Country Lows

Community

WunderPhotos

Upload Photos

1,755,608 photos uploaded!

Nearby

Snow Depth

Not available.

Earthquake Activity

City Distance Mag. Time & Date
No recent earthquake activity has been reported nearby.
Minimum magnitude displayed is 2.5.

Coastal Water Temperatures

Place Temperature
No Stations Reporting

Nearby Weather Stations